sensor_id;sensor_type;location;lat;lon;timestamp;pressure;altitude;pressure_sealevel;temperature;humidity
30730;BME280;17476;48.458;7.928;2023-05-10T00:01:32;99444.13;;;15.34;100.00
30730;BME280;17476;48.458;7.928;2023-05-10T00:03:58;99448.16;;;15.36;100.00
30730;BME280;17476;48.458;7.928;2023-05-10T00:06:24;99448.34;;;15.41;100.00
30730;BME280;17476;48.458;7.928;2023-05-10T00:08:50;99456.25;;;15.41;100.00
30730;BME280;17476;48.458;7.928;2023-05-10T00:11:15;99452.22;;;15.39;100.00
30730;BME280;17476;48.458;7.928;2023-05-10T00:13:41;99453.03;;;15.33;100.00
30730;BME280;17476;48.458;7.928;2023-05-10T00:16:07;99452.41;;;15.37;100.00
30730;BME280;17476;48.458;7.928;2023-05-10T00:18:33;99452.81;;;15.41;100.00
30730;BME280;17476;48.458;7.928;2023-05-10T00:20:59;99456.25;;;15.41;100.00
30730;BME280;17476;48.458;7.928;2023-05-10T00:23:25;99457.09;;;15.28;100.00
30730;BME280;17476;48.458;7.928;2023-05-10T00:25:50;99456.88;;;15.23;100.00
30730;BME280;17476;48.458;7.928;2023-05-10T00:28:16;99461.34;;;15.23;100.00
30730;BME280;17476;48.458;7.928;2023-05-10T00:30:42;99453.84;;;15.26;100.00
30730;BME280;17476;48.458;7.928;2023-05-10T00:33:08;99442.09;;;15.29;100.00
30730;BME280;17476;48.458;7.928;2023-05-10T00:35:34;99454.66;;;15.34;100.00
30730;BME280;17476;48.458;7.928;2023-05-10T00:37:59;99455.88;;;15.38;100.00
30730;BME280;17476;48.458;7.928;2023-05-10T00:40:25;99446.13;;;15.45;100.00
30730;BME280;17476;48.458;7.928;2023-05-10T00:42:51;99453.16;;;15.51;100.00
30730;BME280;17476;48.458;7.928;2023-05-10T00:45:17;99453.38;;;15.56;100.00
30730;BME280;17476;48.458;7.928;2023-05-10T00:47:43;99450.94;;;15.61;100.00
30730;BME280;17476;48.458;7.928;2023-05-10T00:50:09;99452.56;;;15.62;100.00
30730;BME280;17476;48.458;7.928;2023-05-10T00:52:36;99454.00;;;15.58;100.00
30730;BME280;17476;48.458;7.928;2023-05-10T00:55:01;99451.34;;;15.58;100.00
30730;BME280;17476;48.458;7.928;2023-05-10T00:57:29;99454.00;;;15.58;100.00
30730;BME280;17476;48.458;7.928;2023-05-10T00:59:54;99448.53;;;15.53;100.00
30730;BME280;17476;48.458;7.928;2023-05-10T01:02:20;99445.25;;;15.51;100.00
30730;BME280;17476;48.458;7.928;2023-05-10T01:04:46;99445.09;;;15.52;100.00
30730;BME280;17476;48.458;7.928;2023-05-10T01:07:12;99445.25;;;15.51;100.00
30730;BME280;17476;48.458;7.928;2023-05-10T01:09:38;99443.06;;;15.48;100.00
30730;BME280;17476;48.458;7.928;2023-05-10T01:12:05;99439.03;;;15.45;100.00
30730;BME280;17476;48.458;7.928;2023-05-10T01:14:32;99431.75;;;15.34;100.00
30730;BME280;17476;48.458;7.928;2023-05-10T01:17:00;99442.88;;;15.36;100.00
30730;BME280;17476;48.458;7.928;2023-05-10T01:19:28;99446.16;;;15.32;100.00
30730;BME280;17476;48.458;7.928;2023-05-10T01:31:35;99454.25;;;15.23;100.00
30730;BME280;17476;48.458;7.928;2023-05-10T01:34:22;99447.59;;;15.21;100.00
30730;BME280;17476;48.458;7.928;2023-05-10T01:37:10;99447.59;;;15.14;100.00
30730;BME280;17476;48.458;7.928;2023-05-10T01:39:49;99443.13;;;15.15;100.00
30730;BME280;17476;48.458;7.928;2023-05-10T01:42:21;99444.16;;;15.00;100.00
30730;BME280;17476;48.458;7.928;2023-05-10T01:45:27;99453.47;;;15.03;100.00
30730;BME280;17476;48.458;7.928;2023-05-10T01:48:17;99442.94;;;14.96;100.00
30730;BME280;17476;48.458;7.928;2023-05-10T01:50:45;99447.22;;;15.04;100.00
30730;BME280;17476;48.458;7.928;2023-05-10T01:53:13;99457.13;;;15.09;100.00
30730;BME280;17476;48.458;7.928;2023-05-10T01:55:48;99449.84;;;15.11;100.00
30730;BME280;17476;48.458;7.928;2023-05-10T01:58:28;99455.72;;;14.99;100.00
30730;BME280;17476;48.458;7.928;2023-05-10T02:00:56;99462.38;;;15.02;100.00
30730;BME280;17476;48.458;7.928;2023-05-10T02:03:24;99464.44;;;14.93;100.00
30730;BME280;17476;48.458;7.928;2023-05-10T02:05:53;99463.41;;;15.01;100.00
30730;BME280;17476;48.458;7.928;2023-05-10T02:08:22;99457.13;;;15.09;100.00
30730;BME280;17476;48.458;7.928;2023-05-10T02:10:51;99461.56;;;15.08;100.00
30730;BME280;17476;48.458;7.928;2023-05-10T02:13:18;99462.59;;;15.07;100.00
30730;BME280;17476;48.458;7.928;2023-05-10T02:15:48;99458.94;;;15.15;100.00
30730;BME280;17476;48.458;7.928;2023-05-10T02:18:14;99458.94;;;15.15;100.00
30730;BME280;17476;48.458;7.928;2023-05-10T02:20:44;99462.00;;;15.05;100.00
30730;BME280;17476;48.458;7.928;2023-05-10T02:23:11;99470.91;;;14.97;100.00
30730;BME280;17476;48.458;7.928;2023-05-10T02:25:38;99471.09;;;14.96;100.00
30730;BME280;17476;48.458;7.928;2023-05-10T02:28:06;99472.13;;;14.95;100.00
30730;BME280;17476;48.458;7.928;2023-05-10T02:30:33;99475.97;;;14.92;100.00
30730;BME280;17476;48.458;7.928;2023-05-10T02:33:01;99476.56;;;14.88;100.00
30730;BME280;17476;48.458;7.928;2023-05-10T02:35:29;99472.72;;;14.97;100.00
30730;BME280;17476;48.458;7.928;2023-05-10T02:37:57;99476.38;;;14.96;100.00
30730;BME280;17476;48.458;7.928;2023-05-10T02:40:24;99479.00;;;14.96;100.00
30730;BME280;17476;48.458;7.928;2023-05-10T02:42:55;99476.19;;;14.97;100.00
30730;BME280;17476;48.458;7.928;2023-05-10T02:45:26;99471.91;;;14.90;100.00
30730;BME280;17476;48.458;7.928;2023-05-10T02:47:53;99475.16;;;14.85;100.00
30730;BME280;17476;48.458;7.928;2023-05-10T02:50:20;99472.94;;;14.89;100.00
30730;BME280;17476;48.458;7.928;2023-05-10T02:52:50;99472.31;;;14.87;100.00
30730;BME280;17476;48.458;7.928;2023-05-10T02:55:22;99478.19;;;14.89;100.00
30730;BME280;17476;48.458;7.928;2023-05-10T02:58:00;99471.91;;;14.96;100.00
30730;BME280;17476;48.458;7.928;2023-05-10T03:00:26;99471.91;;;14.96;100.00
30730;BME280;17476;48.458;7.928;2023-05-10T03:02:53;99483.06;;;14.92;100.00
30730;BME280;17476;48.458;7.928;2023-05-10T03:05:19;99479.22;;;14.94;100.00
30730;BME280;17476;48.458;7.928;2023-05-10T03:07:46;99479.00;;;14.96;100.00
30730;BME280;17476;48.458;7.928;2023-05-10T03:10:13;99479.81;;;14.90;100.00
30730;BME280;17476;48.458;7.928;2023-05-10T03:19:10;99485.69;;;14.85;100.00
30730;BME280;17476;48.458;7.928;2023-05-10T03:21:41;99496.22;;;14.85;100.00
30730;BME280;17476;48.458;7.928;2023-05-10T03:24:11;99502.91;;;14.74;100.00
30730;BME280;17476;48.458;7.928;2023-05-10T03:26:38;99502.50;;;14.78;100.00
30730;BME280;17476;48.458;7.928;2023-05-10T03:29:06;99497.84;;;14.73;100.00
30730;BME280;17476;48.458;7.928;2023-05-10T03:31:33;99500.66;;;14.58;100.00
30730;BME280;17476;48.458;7.928;2023-05-10T03:33:59;99497.63;;;14.68;100.00
30730;BME280;17476;48.458;7.928;2023-05-10T03:36:25;99501.28;;;14.73;100.00
30730;BME280;17476;48.458;7.928;2023-05-10T03:38:51;99505.13;;;14.71;100.00
30730;BME280;17476;48.458;7.928;2023-05-10T03:41:17;99502.28;;;14.72;100.00
30730;BME280;17476;48.458;7.928;2023-05-10T03:43:42;99505.97;;;14.85;100.00
30730;BME280;17476;48.458;7.928;2023-05-10T03:46:08;99504.13;;;14.65;100.00
30730;BME280;17476;48.458;7.928;2023-05-10T03:48:34;99495.78;;;14.62;100.00
30730;BME280;17476;48.458;7.928;2023-05-10T03:51:00;99495.19;;;14.60;100.00
30730;BME280;17476;48.458;7.928;2023-05-10T03:53:26;99498.63;;;14.60;100.00
30730;BME280;17476;48.458;7.928;2023-05-10T03:55:52;99501.88;;;14.62;100.00
30730;BME280;17476;48.458;7.928;2023-05-10T03:58:18;99499.44;;;14.61;100.00
30730;BME280;17476;48.458;7.928;2023-05-10T04:00:44;99506.13;;;14.63;100.00
30730;BME280;17476;48.458;7.928;2023-05-10T04:03:14;99512.81;;;14.59;100.00
30730;BME280;17476;48.458;7.928;2023-05-10T04:05:40;99510.38;;;14.51;100.00
30730;BME280;17476;48.458;7.928;2023-05-10T04:08:06;99511.38;;;14.50;100.00
30730;BME280;17476;48.458;7.928;2023-05-10T04:10:32;99516.22;;;14.53;100.00
30730;BME280;17476;48.458;7.928;2023-05-10T04:12:58;99514.03;;;14.57;100.00
30730;BME280;17476;48.458;7.928;2023-05-10T04:15:24;99511.19;;;14.65;100.00
30730;BME280;17476;48.458;7.928;2023-05-10T04:17:49;99509.38;;;14.65;100.00
30730;BME280;17476;48.458;7.928;2023-05-10T04:20:16;99511.56;;;14.55;100.00
30730;BME280;17476;48.458;7.928;2023-05-10T04:22:42;99512.78;;;14.53;100.00
30730;BME280;17476;48.458;7.928;2023-05-10T04:25:08;99508.34;;;14.53;100.00
30730;BME280;17476;48.458;7.928;2023-05-10T04:27:34;99507.72;;;14.51;100.00
30730;BME280;17476;48.458;7.928;2023-05-10T04:30:00;99518.47;;;14.50;100.00
30730;BME280;17476;48.458;7.928;2023-05-10T04:32:26;99514.81;;;14.51;100.00
30730;BME280;17476;48.458;7.928;2023-05-10T04:34:51;99512.78;;;14.46;100.00
30730;BME280;17476;48.458;7.928;2023-05-10T04:37:17;99516.22;;;14.53;100.00
30730;BME280;17476;48.458;7.928;2023-05-10T04:39:43;99520.91;;;14.58;100.00
30730;BME280;17476;48.458;7.928;2023-05-10T04:42:13;99515.44;;;14.66;100.00
30730;BME280;17476;48.458;7.928;2023-05-10T04:44:44;99512.22;;;14.70;100.00
30730;BME280;17476;48.458;7.928;2023-05-10T04:47:09;99514.63;;;14.65;100.00
30730;BME280;17476;48.458;7.928;2023-05-10T04:49:35;99520.69;;;14.59;100.00
30730;BME280;17476;48.458;7.928;2023-05-10T04:52:01;99525.16;;;14.65;100.00
30730;BME280;17476;48.458;7.928;2023-05-10T04:54:27;99521.13;;;14.76;100.00
30730;BME280;17476;48.458;7.928;2023-05-10T04:56:52;99523.97;;;14.74;100.00
30730;BME280;17476;48.458;7.928;2023-05-10T04:59:18;99536.72;;;14.64;100.00
30730;BME280;17476;48.458;7.928;2023-05-10T05:01:44;99540.34;;;14.77;100.00
30730;BME280;17476;48.458;7.928;2023-05-10T05:04:10;99529.66;;;14.85;100.00
30730;BME280;17476;48.458;7.928;2023-05-10T05:06:36;99538.75;;;14.89;100.00
30730;BME280;17476;48.458;7.928;2023-05-10T05:09:01;99542.63;;;14.99;100.00
30730;BME280;17476;48.458;7.928;2023-05-10T05:11:28;99547.88;;;14.80;100.00
30730;BME280;17476;48.458;7.928;2023-05-10T05:13:53;99548.06;;;14.71;100.00
30730;BME280;17476;48.458;7.928;2023-05-10T05:16:19;99552.53;;;14.78;100.00
30730;BME280;17476;48.458;7.928;2023-05-10T05:18:45;99554.38;;;14.84;100.00
30730;BME280;17476;48.458;7.928;2023-05-10T05:21:18;99546.47;;;14.84;100.00
30730;BME280;17476;48.458;7.928;2023-05-10T05:23:45;99548.47;;;14.82;100.00
30730;BME280;17476;48.458;7.928;2023-05-10T05:26:11;99562.66;;;14.81;100.00
30730;BME280;17476;48.458;7.928;2023-05-10T05:28:37;99568.13;;;14.86;100.00
30730;BME280;17476;48.458;7.928;2023-05-10T05:31:05;99569.53;;;14.95;100.00
30730;BME280;17476;48.458;7.928;2023-05-10T05:33:31;99572.19;;;14.95;100.00
30730;BME280;17476;48.458;7.928;2023-05-10T05:36:00;99578.25;;;14.95;100.00
30730;BME280;17476;48.458;7.928;2023-05-10T05:38:26;99578.88;;;14.97;100.00
30730;BME280;17476;48.458;7.928;2023-05-10T05:40:52;99574.81;;;14.95;100.00
30730;BME280;17476;48.458;7.928;2023-05-10T05:43:18;99579.69;;;14.98;100.00
30730;BME280;17476;48.458;7.928;2023-05-10T05:45:44;99584.53;;;14.88;100.00
30730;BME280;17476;48.458;7.928;2023-05-10T05:48:10;99583.13;;;14.85;100.00
30730;BME280;17476;48.458;7.928;2023-05-10T05:50:36;99587.59;;;14.91;100.00
30730;BME280;17476;48.458;7.928;2023-05-10T05:53:01;99599.53;;;14.94;100.00
30730;BME280;17476;48.458;7.928;2023-05-10T05:55:27;99601.97;;;14.95;100.00
30730;BME280;17476;48.458;7.928;2023-05-10T05:57:55;99604.59;;;15.02;100.00
30730;BME280;17476;48.458;7.928;2023-05-10T06:00:20;99600.13;;;15.02;100.00
30730;BME280;17476;48.458;7.928;2023-05-10T06:02:47;99599.97;;;15.11;100.00
30730;BME280;17476;48.458;7.928;2023-05-10T06:05:13;99609.66;;;15.10;100.00
30730;BME280;17476;48.458;7.928;2023-05-10T06:07:39;99602.59;;;15.11;100.00
30730;BME280;17476;48.458;7.928;2023-05-10T06:10:08;99604.59;;;15.09;100.00
30730;BME280;17476;48.458;7.928;2023-05-10T06:12:35;99595.31;;;15.19;100.00
30730;BME280;17476;48.458;7.928;2023-05-10T06:15:01;99591.22;;;15.10;100.00
30730;BME280;17476;48.458;7.928;2023-05-10T06:17:28;99598.97;;;15.12;100.00
30730;BME280;17476;48.458;7.928;2023-05-10T06:19:54;99602.00;;;15.22;100.00
30730;BME280;17476;48.458;7.928;2023-05-10T06:22:20;99600.97;;;15.16;100.00
30730;BME280;17476;48.458;7.928;2023-05-10T06:24:48;99608.88;;;15.23;100.00
30730;BME280;17476;48.458;7.928;2023-05-10T06:27:14;99609.91;;;15.35;100.00
30730;BME280;17476;48.458;7.928;2023-05-10T06:29:40;99604.41;;;15.50;100.00
30730;BME280;17476;48.458;7.928;2023-05-10T06:32:06;99599.56;;;15.60;100.00
30730;BME280;17476;48.458;7.928;2023-05-10T06:34:32;99605.06;;;15.72;100.00
30730;BME280;17476;48.458;7.928;2023-05-10T06:36:57;99615.16;;;15.55;100.00
30730;BME280;17476;48.458;7.928;2023-05-10T06:39:23;99617.19;;;15.60;100.00
30730;BME280;17476;48.458;7.928;2023-05-10T06:41:49;99620.47;;;15.62;100.00
30730;BME280;17476;48.458;7.928;2023-05-10T06:44:15;99629.78;;;15.64;100.00
30730;BME280;17476;48.458;7.928;2023-05-10T06:46:41;99620.66;;;15.60;100.00
30730;BME280;17476;48.458;7.928;2023-05-10T06:49:07;99628.34;;;15.55;100.00
30730;BME280;17476;48.458;7.928;2023-05-10T06:51:33;99624.91;;;15.54;100.00
30730;BME280;17476;48.458;7.928;2023-05-10T06:53:59;99631.41;;;15.59;100.00
30730;BME280;17476;48.458;7.928;2023-05-10T06:56:25;99620.84;;;15.52;100.00
30730;BME280;17476;48.458;7.928;2023-05-10T06:58:51;99623.50;;;15.59;100.00
30730;BME280;17476;48.458;7.928;2023-05-10T07:01:17;99624.72;;;15.69;100.00
30730;BME280;17476;48.458;7.928;2023-05-10T07:03:43;99621.84;;;15.77;100.00
30730;BME280;17476;48.458;7.928;2023-05-10T07:06:08;99622.47;;;15.93;100.00
30730;BME280;17476;48.458;7.928;2023-05-10T07:08:34;99615.13;;;16.08;100.00
30730;BME280;17476;48.458;7.928;2023-05-10T07:11:04;99626.28;;;16.03;100.00
30730;BME280;17476;48.458;7.928;2023-05-10T07:13:34;99624.22;;;16.12;100.00
30730;BME280;17476;48.458;7.928;2023-05-10T07:16:00;99627.69;;;16.13;99.86
30730;BME280;17476;48.458;7.928;2023-05-10T07:18:28;99628.50;;;16.13;99.63
30730;BME280;17476;48.458;7.928;2023-05-10T07:20:54;99625.66;;;16.15;100.00
30730;BME280;17476;48.458;7.928;2023-05-10T07:23:20;99633.75;;;16.20;100.00
30730;BME280;17476;48.458;7.928;2023-05-10T07:25:47;99636.97;;;16.35;99.23
30730;BME280;17476;48.458;7.928;2023-05-10T07:28:14;99629.88;;;16.22;97.48
30730;BME280;17476;48.458;7.928;2023-05-10T07:30:42;99628.69;;;16.11;96.97
30730;BME280;17476;48.458;7.928;2023-05-10T07:33:09;99627.25;;;16.22;98.76
30730;BME280;17476;48.458;7.928;2023-05-10T07:35:35;99628.00;;;16.36;97.27
30730;BME280;17476;48.458;7.928;2023-05-10T07:38:02;99628.59;;;16.45;98.84
30730;BME280;17476;48.458;7.928;2023-05-10T07:40:28;99636.31;;;16.46;99.59
30730;BME280;17476;48.458;7.928;2023-05-10T07:42:54;99640.50;;;16.67;98.79
30730;BME280;17476;48.458;7.928;2023-05-10T07:45:20;99630.25;;;16.84;99.77
30730;BME280;17476;48.458;7.928;2023-05-10T07:47:46;99631.25;;;17.21;100.00
30730;BME280;17476;48.458;7.928;2023-05-10T07:50:12;99639.47;;;17.38;96.65
30730;BME280;17476;48.458;7.928;2023-05-10T07:52:38;99636.19;;;17.42;95.04
30730;BME280;17476;48.458;7.928;2023-05-10T07:55:04;99634.47;;;17.55;90.84
30730;BME280;17476;48.458;7.928;2023-05-10T07:57:30;99640.56;;;17.55;91.58
30730;BME280;17476;48.458;7.928;2023-05-10T07:59:56;99640.63;;;17.67;90.65
30730;BME280;17476;48.458;7.928;2023-05-10T08:02:22;99650.34;;;17.55;89.54
30730;BME280;17476;48.458;7.928;2023-05-10T08:04:48;99648.69;;;17.54;90.41
30730;BME280;17476;48.458;7.928;2023-05-10T08:07:14;99650.97;;;17.50;92.64
30730;BME280;17476;48.458;7.928;2023-05-10T08:09:39;99645.50;;;17.70;92.72
30730;BME280;17476;48.458;7.928;2023-05-10T08:12:06;99640.38;;;18.00;91.25
30730;BME280;17476;48.458;7.928;2023-05-10T08:14:31;99634.50;;;18.16;88.72
30730;BME280;17476;48.458;7.928;2023-05-10T08:16:57;99629.94;;;18.23;85.60
30730;BME280;17476;48.458;7.928;2023-05-10T08:19:23;99622.63;;;18.55;88.62
30730;BME280;17476;48.458;7.928;2023-05-10T08:21:49;99623.56;;;18.79;82.11
30730;BME280;17476;48.458;7.928;2023-05-10T08:24:15;99620.31;;;19.07;81.31
30730;BME280;17476;48.458;7.928;2023-05-10T08:26:41;99618.88;;;19.47;82.39
30730;BME280;17476;48.458;7.928;2023-05-10T08:29:07;99626.31;;;19.68;81.20
30730;BME280;17476;48.458;7.928;2023-05-10T08:31:32;99627.34;;;19.90;82.83
30730;BME280;17476;48.458;7.928;2023-05-10T08:33:58;99631.75;;;19.73;72.25
30730;BME280;17476;48.458;7.928;2023-05-10T08:36:24;99641.66;;;19.89;77.63
30730;BME280;17476;48.458;7.928;2023-05-10T08:38:54;99653.06;;;19.90;76.33
30730;BME280;17476;48.458;7.928;2023-05-10T08:41:20;99656.31;;;19.80;72.35
30730;BME280;17476;48.458;7.928;2023-05-10T08:43:47;99658.44;;;19.48;73.77
30730;BME280;17476;48.458;7.928;2023-05-10T08:46:18;99667.94;;;19.14;78.21
30730;BME280;17476;48.458;7.928;2023-05-10T08:48:45;99668.59;;;19.09;81.26
30730;BME280;17476;48.458;7.928;2023-05-10T08:51:18;99668.66;;;19.21;78.07
30730;BME280;17476;48.458;7.928;2023-05-10T08:53:45;99667.59;;;19.22;77.69
30730;BME280;17476;48.458;7.928;2023-05-10T08:56:12;99678.13;;;19.29;77.22
30730;BME280;17476;48.458;7.928;2023-05-10T08:58:38;99673.63;;;19.29;77.80
30730;BME280;17476;48.458;7.928;2023-05-10T09:01:05;99678.97;;;19.41;78.57
30730;BME280;17476;48.458;7.928;2023-05-10T09:03:32;99683.81;;;19.44;80.06
30730;BME280;17476;48.458;7.928;2023-05-10T09:05:58;99680.97;;;19.57;79.30
30730;BME280;17476;48.458;7.928;2023-05-10T09:08:26;99675.34;;;19.66;79.25
30730;BME280;17476;48.458;7.928;2023-05-10T09:10:54;99681.22;;;19.68;78.95
30730;BME280;17476;48.458;7.928;2023-05-10T09:13:22;99680.88;;;19.64;78.97
30730;BME280;17476;48.458;7.928;2023-05-10T09:15:48;99670.03;;;19.66;78.82
30730;BME280;17476;48.458;7.928;2023-05-10T09:18:15;99671.75;;;19.60;72.91
30730;BME280;17476;48.458;7.928;2023-05-10T09:20:41;99674.13;;;19.50;79.39
30730;BME280;17476;48.458;7.928;2023-05-10T09:23:07;99679.50;;;19.61;78.45
30730;BME280;17476;48.458;7.928;2023-05-10T09:25:33;99674.78;;;19.75;79.13
30730;BME280;17476;48.458;7.928;2023-05-10T09:27:59;99675.13;;;19.90;79.45
30730;BME280;17476;48.458;7.928;2023-05-10T09:30:30;99677.41;;;20.10;79.57
30730;BME280;17476;48.458;7.928;2023-05-10T09:32:58;99685.38;;;20.22;77.64
30730;BME280;17476;48.458;7.928;2023-05-10T09:35:28;99678.47;;;20.21;77.36
30730;BME280;17476;48.458;7.928;2023-05-10T09:37:56;99698.44;;;20.12;76.77
30730;BME280;17476;48.458;7.928;2023-05-10T09:40:24;99708.91;;;19.83;73.97
30730;BME280;17476;48.458;7.928;2023-05-10T09:43:06;99701.97;;;19.71;75.66
30730;BME280;17476;48.458;7.928;2023-05-10T09:45:35;99704.25;;;19.55;73.90
30730;BME280;17476;48.458;7.928;2023-05-10T09:48:02;99703.63;;;19.42;68.68
30730;BME280;17476;48.458;7.928;2023-05-10T09:50:29;99700.75;;;19.43;67.50
30730;BME280;17476;48.458;7.928;2023-05-10T09:53:01;99700.72;;;19.61;69.09
30730;BME280;17476;48.458;7.928;2023-05-10T09:55:43;99698.06;;;19.61;69.50
30730;BME280;17476;48.458;7.928;2023-05-10T09:58:11;99702.25;;;19.81;65.37
30730;BME280;17476;48.458;7.928;2023-05-10T10:00:45;99702.13;;;20.46;68.45
30730;BME280;17476;48.458;7.928;2023-05-10T10:03:19;99699.78;;;20.61;63.31
30730;BME280;17476;48.458;7.928;2023-05-10T10:05:47;99702.34;;;20.44;61.88
30730;BME280;17476;48.458;7.928;2023-05-10T10:08:14;99706.25;;;20.42;67.18
30730;BME280;17476;48.458;7.928;2023-05-10T10:10:41;99708.81;;;20.49;70.46
30730;BME280;17476;48.458;7.928;2023-05-10T10:13:08;99709.59;;;20.61;68.72
30730;BME280;17476;48.458;7.928;2023-05-10T10:15:34;99710.66;;;20.48;62.43
30730;BME280;17476;48.458;7.928;2023-05-10T10:18:01;99707.53;;;19.81;60.72
30730;BME280;17476;48.458;7.928;2023-05-10T10:20:27;99709.84;;;19.89;63.84
30730;BME280;17476;48.458;7.928;2023-05-10T10:22:53;99703.16;;;20.10;65.47
30730;BME280;17476;48.458;7.928;2023-05-10T10:25:20;99703.03;;;20.52;68.48
30730;BME280;17476;48.458;7.928;2023-05-10T10:30:41;99709.88;;;21.16;57.47
30730;BME280;17476;48.458;7.928;2023-05-10T10:36:18;99712.59;;;20.64;57.13
30730;BME280;17476;48.458;7.928;2023-05-10T10:41:35;99715.19;;;20.12;53.27
30730;BME280;17476;48.458;7.928;2023-05-10T10:44:24;99709.72;;;20.31;54.66
30730;BME280;17476;48.458;7.928;2023-05-10T10:52:31;99709.22;;;21.26;53.46
30730;BME280;17476;48.458;7.928;2023-05-10T10:55:19;99706.59;;;21.55;52.88
30730;BME280;17476;48.458;7.928;2023-05-10T10:57:52;99694.69;;;22.29;53.81
30730;BME280;17476;48.458;7.928;2023-05-10T11:00:30;99698.03;;;22.85;51.58
30730;BME280;17476;48.458;7.928;2023-05-10T11:03:14;99699.16;;;23.16;49.12
30730;BME280;17476;48.458;7.928;2023-05-10T11:05:49;99694.66;;;23.17;51.73
30730;BME280;17476;48.458;7.928;2023-05-10T11:08:33;99692.56;;;23.51;49.27
30730;BME280;17476;48.458;7.928;2023-05-10T11:13:45;99695.22;;;24.26;46.94
30730;BME280;17476;48.458;7.928;2023-05-10T11:16:22;99689.88;;;24.88;52.12
30730;BME280;17476;48.458;7.928;2023-05-10T11:19:08;99689.88;;;24.88;43.24
30730;BME280;17476;48.458;7.928;2023-05-10T11:21:49;99679.81;;;25.31;45.70
30730;BME280;17476;48.458;7.928;2023-05-10T11:24:25;99686.94;;;24.90;40.93
30730;BME280;17476;48.458;7.928;2023-05-10T11:26:53;99682.91;;;24.92;42.41
30730;BME280;17476;48.458;7.928;2023-05-10T11:29:19;99681.06;;;24.98;39.13
30730;BME280;17476;48.458;7.928;2023-05-10T11:31:47;99690.16;;;24.97;40.51
30730;BME280;17476;48.458;7.928;2023-05-10T11:34:28;99683.53;;;25.10;40.43
30730;BME280;17476;48.458;7.928;2023-05-10T11:37:00;99684.50;;;24.78;36.89
30730;BME280;17476;48.458;7.928;2023-05-10T11:39:31;99682.50;;;24.43;40.98
30730;BME280;17476;48.458;7.928;2023-05-10T11:41:58;99687.84;;;24.43;40.81
30730;BME280;17476;48.458;7.928;2023-05-10T11:44:30;99684.53;;;24.26;37.55
30730;BME280;17476;48.458;7.928;2023-05-10T11:46:59;99680.69;;;24.06;40.89
30730;BME280;17476;48.458;7.928;2023-05-10T11:49:26;99687.69;;;24.12;42.57
30730;BME280;17476;48.458;7.928;2023-05-10T11:51:52;99675.31;;;23.64;42.26
30730;BME280;17476;48.458;7.928;2023-05-10T11:54:17;99685.44;;;23.62;45.23
30730;BME280;17476;48.458;7.928;2023-05-10T11:56:43;99681.31;;;23.81;41.59
30730;BME280;17476;48.458;7.928;2023-05-10T11:59:10;99682.47;;;23.95;41.46
30730;BME280;17476;48.458;7.928;2023-05-10T12:01:36;99679.56;;;24.39;40.66
30730;BME280;17476;48.458;7.928;2023-05-10T12:04:02;99675.78;;;25.59;44.00
30730;BME280;17476;48.458;7.928;2023-05-10T12:06:31;99678.09;;;26.32;42.35
30730;BME280;17476;48.458;7.928;2023-05-10T12:08:58;99674.25;;;26.63;37.13
30730;BME280;17476;48.458;7.928;2023-05-10T12:11:26;99683.50;;;26.11;38.20
30730;BME280;17476;48.458;7.928;2023-05-10T12:13:53;99685.13;;;25.05;37.13
30730;BME280;17476;48.458;7.928;2023-05-10T12:16:25;99686.50;;;25.23;39.58
30730;BME280;17476;48.458;7.928;2023-05-10T12:18:52;99676.69;;;24.61;38.30
30730;BME280;17476;48.458;7.928;2023-05-10T12:21:20;99682.59;;;24.16;37.70
30730;BME280;17476;48.458;7.928;2023-05-10T12:23:50;99687.91;;;24.06;41.79
30730;BME280;17476;48.458;7.928;2023-05-10T12:26:16;99684.69;;;23.66;41.34
30730;BME280;17476;48.458;7.928;2023-05-10T12:28:43;99691.81;;;22.80;40.56
30730;BME280;17476;48.458;7.928;2023-05-10T12:31:08;99694.94;;;22.72;41.93
30730;BME280;17476;48.458;7.928;2023-05-10T12:33:43;99702.00;;;22.61;44.64
30730;BME280;17476;48.458;7.928;2023-05-10T12:36:14;99697.63;;;22.50;44.72
30730;BME280;17476;48.458;7.928;2023-05-10T12:38:45;99698.56;;;22.05;46.75
30730;BME280;17476;48.458;7.928;2023-05-10T12:41:17;99696.00;;;21.93;44.84
30730;BME280;17476;48.458;7.928;2023-05-10T12:43:44;99696.56;;;21.95;45.32
30730;BME280;17476;48.458;7.928;2023-05-10T12:46:17;99695.44;;;21.91;46.90
30730;BME280;17476;48.458;7.928;2023-05-10T12:48:44;99690.84;;;21.87;47.09
30730;BME280;17476;48.458;7.928;2023-05-10T12:51:11;99687.78;;;21.95;44.95
30730;BME280;17476;48.458;7.928;2023-05-10T12:53:41;99693.09;;;22.12;45.97
30730;BME280;17476;48.458;7.928;2023-05-10T12:56:07;99689.09;;;21.75;45.86
30730;BME280;17476;48.458;7.928;2023-05-10T12:58:34;99690.31;;;22.06;47.39
30730;BME280;17476;48.458;7.928;2023-05-10T13:00:59;99678.25;;;21.99;43.35
30730;BME280;17476;48.458;7.928;2023-05-10T13:03:25;99685.16;;;22.00;45.43
30730;BME280;17476;48.458;7.928;2023-05-10T13:05:51;99684.56;;;22.10;46.17
30730;BME280;17476;48.458;7.928;2023-05-10T13:08:17;99688.28;;;22.09;44.69
30730;BME280;17476;48.458;7.928;2023-05-10T13:10:43;99682.59;;;22.05;43.93
30730;BME280;17476;48.458;7.928;2023-05-10T13:13:09;99685.63;;;22.30;43.92
30730;BME280;17476;48.458;7.928;2023-05-10T13:15:35;99682.47;;;22.77;44.27
30730;BME280;17476;48.458;7.928;2023-05-10T13:18:01;99667.50;;;23.57;42.93
30730;BME280;17476;48.458;7.928;2023-05-10T13:20:27;99664.47;;;24.23;42.38
30730;BME280;17476;48.458;7.928;2023-05-10T13:22:53;99668.69;;;24.71;40.95
30730;BME280;17476;48.458;7.928;2023-05-10T13:25:19;99669.09;;;25.31;40.85
30730;BME280;17476;48.458;7.928;2023-05-10T13:27:45;99663.75;;;25.77;39.35
30730;BME280;17476;48.458;7.928;2023-05-10T13:30:11;99661.56;;;26.04;36.78
30730;BME280;17476;48.458;7.928;2023-05-10T13:32:37;99665.34;;;26.68;39.82